Flight Track Log - Related Links

Times and Time Zones

All times are in EDT time to prevent confusion due to time zone crossing. See the SKW4581 flight status page for this flight to view local times or setup timezone preferences in your user account.

Time Position Orientation Groundspeed Altitude Reporting Facility
EDT Latitude Longitude Course Direction KTS MPH feet Rate Location/Type
Tue 08:04:35 PM 32.8753 -97.0522 187° South 168 193 1,400  Level FAA TRACON SMA TRACON (SMA)
Tue 08:05:16 PM 32.8431 -97.0567 197° South 192 221 2,200 1,425 Climbing FAA TRACON SMA TRACON (SMA)
Tue 08:05:55 PM 32.8031 -97.0714 216° Southwest 221 254 3,300 1,950 Climbing FAA TRACON SMA TRACON (SMA)
Tue 08:06:36 PM 32.7683 -97.1011 266° West 242 278 4,800 1,650 Climbing FAA TRACON SMA TRACON (SMA)
Tue 08:07:15 PM 32.7653 -97.1525 275° West 259 298 5,500 1,350 Climbing FAA TRACON SMA TRACON (SMA)
Tue 08:07:56 PM 32.7700 -97.2189 296° West 296 341 6,600 2,000 Climbing FAA TRACON SMA TRACON (SMA)
Tue 08:08:36 PM 32.7950 -97.2786 307° West 297 342 8,200 2,430 Climbing FAA TRACON SMA TRACON (SMA)
Tue 08:09:15 PM 32.8258 -97.3267 308° West 299 344 9,800 2,100 Climbing FAA TRACON SMA TRACON (SMA)
Tue 08:09:56 PM 32.8619 -97.3811 308° West 303 349 11,000 1,852 Climbing FAA TRACON SMA TRACON (SMA)
Tue 08:10:36 PM 32.8994 -97.4383 308° West 315 362 12,300 1,950 Climbing FAA TRACON SMA TRACON (SMA)
Tue 08:11:16 PM 32.9331 -97.4894 308° West 319 367 13,600 1,610 Climbing FAA TRACON SMA TRACON (SMA)
Tue 08:11:58 PM 32.9725 -97.5494 309° West 331 381 14,500 1,200 Climbing FAA TRACON SMA TRACON (SMA)
Tue 08:12:36 PM 33.0158 -97.6133 308° West 360 414 15,200 1,231 Climbing FAA TRACON SMA TRACON (SMA)
Tue 08:13:16 PM 33.0550 -97.6733 304° West 374 430 16,100 1,575 Climbing FAA TRACON SMA TRACON (SMA)
Tue 08:13:56 PM 33.0953 -97.7458 294° West 381 438 17,300 1,899 Climbing FAA TRACON SMA TRACON (SMA)
Tue 08:14:35 PM 33.1219 -97.8183 290° West 389 448 18,600 1,952 Climbing FAA TRACON SMA TRACON (SMA)
Tue 08:15:19 PM 33.1497 -97.9103 292° West 383 441 20,000 1,875 Climbing FAA TRACON SMA TRACON (SMA)
Tue 08:15:55 PM 33.1747 -97.9828 291° West 381 438 21,100 1,658 Climbing FAA TRACON SMA TRACON (SMA)
Tue 08:16:35 PM 33.1981 -98.0547 290° West 379 436 22,100 1,333 Climbing FAA TRACON SMA TRACON (SMA)
Tue 08:17:16 PM 33.2206 -98.1275 288° West 380 437 22,900 1,119 Climbing FAA TRACON SMA TRACON (SMA)
Tue 08:18:33 PM 33.2664 -98.2978 292° West 398 458 24,300 1,067 Climbing Fort Worth Center
Tue 08:19:31 PM 33.3072 -98.4175 298° West 397 457 25,300 915 Climbing Fort Worth Center
Tue 08:20:31 PM 33.3606 -98.5400 308° West 402 463 26,100 744 Climbing Fort Worth Center
Tue 08:21:32 PM 33.4367 -98.6581 307° West 429 494 26,800 787 Climbing Fort Worth Center
Tue 08:22:33 PM 33.5086 -98.7736 307° West 439 505 27,700 908 Climbing Fort Worth Center
Tue 08:23:31 PM 33.5886 -98.8997 304° West 464 534 28,600 915 Climbing Fort Worth Center
Tue 08:24:31 PM 33.6600 -99.0281 309° West 469 540 29,500 843 Climbing Fort Worth Center
Tue 08:25:32 PM 33.7397 -99.1444 308° West 464 534 30,300 850 Climbing Fort Worth Center
Tue 08:26:31 PM 33.8194 -99.2686 306° West 459 528 31,200 850 Climbing Fort Worth Center
Tue 08:27:32 PM 33.8947 -99.3928 307° West 465 535 32,000 393 Climbing Fort Worth Center
Tue 08:28:33 PM 33.9719 -99.5172 307° West 465 535 32,000  Level Fort Worth Center
Tue 08:29:33 PM 34.0492 -99.6394 306° West 459 528 32,000  Level Fort Worth Center
Tue 08:30:31 PM 34.1242 -99.7644 305° West 459 528 32,000  Level Fort Worth Center
Tue 08:31:32 PM 34.1967 -99.8892 307° West 459 528 32,000 250 Level Fort Worth Center
Tue 08:32:31 PM 34.2694 -100.0069 306° West 459 528 32,500 605 Climbing Fort Worth Center
Tue 08:33:31 PM 34.3381 -100.1222 306° West 459 528 33,200 759 Climbing Fort Worth Center
Tue 08:35:17 PM 34.4736 -100.3472 306° West 458 527 34,600 821 Climbing Albuquerque Center
Tue 08:36:19 PM 34.5481 -100.4722 306° West 458 527 35,500 823 Climbing Albuquerque Center
Tue 08:37:21 PM 34.6222 -100.5950 306° West 454 522 36,300 726 Climbing Albuquerque Center
Tue 08:38:23 PM 34.6942 -100.7164 306° West 447 514 37,000 629 Climbing Albuquerque Center
Tue 08:39:25 PM 34.7806 -100.8633 306° West 445 512 37,600 484 Climbing Albuquerque Center
Tue 08:40:27 PM 34.8528 -100.9856 306° West 445 512 38,000 194 Climbing Albuquerque Center
Tue 08:41:29 PM 34.9247 -101.1081 306° West 445 512 38,000  Level Albuquerque Center
Tue 08:42:31 PM 34.9986 -101.2344 305° West 450 518 38,000  Level Albuquerque Center
Tue 08:43:33 PM 35.0728 -101.3636 306° West 458 527 38,000  Level Albuquerque Center
Tue 08:44:35 PM 35.1492 -101.4933 306° West 465 535 38,000  Level Albuquerque Center
Tue 08:45:37 PM 35.2267 -101.6228 305° West 468 539 38,000  Level Albuquerque Center
Tue 08:46:39 PM 35.3092 -101.7656 306° West 467 537 38,000  Level Albuquerque Center
Tue 08:47:41 PM 35.3842 -101.8944 304° West 464 534 38,000  Level Albuquerque Center
Tue 08:48:43 PM 35.4517 -102.0189 305° West 459 528 38,000  Level Albuquerque Center
Tue 08:49:45 PM 35.5383 -102.1703 305° West 453 521 38,000  Level Albuquerque Center
Tue 08:50:47 PM 35.6106 -102.2964 305° West 452 520 38,000  Level Albuquerque Center
Tue 08:51:48 PM 35.6811 -102.4228 305° West 450 518 38,000  Level Albuquerque Center
Tue 08:52:50 PM 35.7536 -102.5503 305° West 452 520 38,000  Level Albuquerque Center
Tue 08:53:52 PM 35.8261 -102.6786 305° West 456 525 38,000  Level Albuquerque Center
Tue 08:54:54 PM 35.8975 -102.8069 304° West 454 522 38,000  Level Albuquerque Center
Tue 08:55:56 PM 35.9722 -102.9417 310° West 455 524 38,000  Level Albuquerque Center
Tue 08:56:58 PM 36.0686 -103.0822 314° West 456 525 38,000  Level Albuquerque Center
Tue 08:58:00 PM 36.1575 -103.1950 315° West 457 526 38,000  Level Albuquerque Center
Tue 08:59:02 PM 36.2475 -103.3083 315° West 458 527 38,000  Level Albuquerque Center
Tue 09:00:04 PM 36.3375 -103.4214 315° West 458 527 38,000  Level Albuquerque Center
Tue 09:01:05 PM 36.4286 -103.5347 315° West 460 529 38,000  Level Albuquerque Center
Tue 09:02:07 PM 36.5194 -103.6467 315° West 459 528 38,000  Level Albuquerque Center
Tue 09:03:09 PM 36.6094 -103.7606 315° West 458 527 38,000  Level Albuquerque Center
Tue 09:04:11 PM 36.7106 -103.8878 303° West 456 525 38,000  Level Albuquerque Center
Tue 09:05:13 PM 36.7750 -104.0131 302° West 452 520 38,000  Level Albuquerque Center
Tue 09:06:15 PM 36.8486 -104.1592 302° West 445 512 38,000  Level Albuquerque Center
Tue 09:07:17 PM 36.9122 -104.2856 302° West 446 513 38,000  Level Albuquerque Center
Tue 09:08:19 PM 36.9864 -104.4325 301° West 446 513 38,000  Level Albuquerque Center
Tue 09:09:00 PM 37.0275 -104.5172 302° West 446 513 38,000  Level Denver Center
Tue 09:10:02 PM 37.0906 -104.6439 302° West 446 513 38,000  Level Denver Center
Tue 09:11:05 PM 37.1639 -104.7928 302° West 447 514 38,000  Level Denver Center
Tue 09:12:07 PM 37.2253 -104.9183 302° West 444 511 38,000  Level Denver Center
Tue 09:13:09 PM 37.2983 -105.0669 302° West 445 512 38,000  Level Denver Center
Tue 09:14:12 PM 37.3606 -105.1936 301° West 444 511 38,000  Level Denver Center
Tue 09:15:14 PM 37.4317 -105.3425 302° West 445 512 38,000  Level Denver Center
Tue 09:16:16 PM 37.4950 -105.4692 311° West 445 512 38,000  Level Denver Center
Tue 09:17:18 PM 37.5856 -105.6025 311° West 441 507 38,000  Level Denver Center
Tue 09:18:20 PM 37.6644 -105.7192 309° West 449 517 38,000  Level Denver Center
Tue 09:19:23 PM 37.7403 -105.8375 300° West 449 517 38,000  Level Denver Center
Tue 09:20:25 PM 37.8097 -105.9903 300° West 448 516 38,000  Level Denver Center
Tue 09:21:27 PM 37.8697 -106.1217 300° West 450 518 38,000  Level Denver Center
Tue 09:22:29 PM 37.9406 -106.2744 300° West 449 517 38,000  Level Denver Center
Tue 09:23:32 PM 38.0000 -106.4056 300° West 449 517 38,000  Level Denver Center
Tue 09:24:34 PM 38.0703 -106.5631 300° West 450 518 38,000  Level Denver Center
Tue 09:25:36 PM 38.1297 -106.6942 299° West 448 516 38,000  Level Denver Center
Tue 09:26:38 PM 38.1975 -106.8475 300° West 447 514 38,000  Level Denver Center
Tue 09:27:41 PM 38.2550 -106.9767 300° West 442 509 38,000  Level Denver Center
Tue 09:28:43 PM 38.3222 -107.1272 300° West 439 505 38,000  Level Denver Center
Tue 09:29:45 PM 38.3794 -107.2561 299° West 438 504 38,000  Level Denver Center
Tue 09:30:47 PM 38.4453 -107.4061 299° West 435 501 38,000  Level Denver Center
Tue 09:31:50 PM 38.5017 -107.5369 299° West 437 503 38,000  Level Denver Center
Tue 09:32:52 PM 38.5675 -107.6897 299° West 440 506 38,000  Level Denver Center
Tue 09:33:54 PM 38.6247 -107.8211 299° West 441 507 38,000  Level Denver Center
Tue 09:34:56 PM 38.6914 -107.9772 299° West 446 513 38,000  Level Denver Center
Tue 09:35:59 PM 38.7494 -108.1114 299° West 449 517 38,000  Level Denver Center
Tue 09:37:01 PM 38.8164 -108.2675 298° West 448 516 38,000  Level Denver Center
Tue 09:38:03 PM 38.8728 -108.4033 299° West 449 517 38,000  Level Denver Center
Tue 09:39:05 PM 38.9394 -108.5611 299° West 449 517 38,000  Level Denver Center
Tue 09:40:07 PM 38.9961 -108.6956 299° West 446 513 38,000  Level Denver Center
Tue 09:41:09 PM 39.0522 -108.8261 298° West 438 504 38,000  Level Denver Center
Tue 09:42:12 PM 39.1167 -108.9806 298° West 437 503 38,000  Level Denver Center
Tue 09:43:14 PM 39.1719 -109.1133 298° West 437 503 38,000 -48 Level Denver Center
Tue 09:44:16 PM 39.2358 -109.2678 298° West 435 501 37,900 -532 Descending Denver Center
Tue 09:45:18 PM 39.2903 -109.3983 298° West 431 496 36,900 -1,016 Descending Denver Center
Tue 09:46:20 PM 39.3525 -109.5469 298° West 422 486 35,800 -960 Descending Denver Center
Tue 09:47:23 PM 39.4044 -109.6753 298° West 421 484 34,900 -1,008 Descending Denver Center
Tue 09:48:25 PM 39.4658 -109.8269 297° West 423 487 33,700 -1,016 Descending Denver Center
Tue 09:49:27 PM 39.5178 -109.9567 298° West 424 488 32,800 -823 Descending Denver Center
Tue 09:50:29 PM 39.5786 -110.1061 297° West 421 484 32,000 -387 Descending Denver Center
Tue 09:51:31 PM 39.6269 -110.2308 298° West 413 475 32,000 -242 Level Denver Center
Tue 09:52:33 PM 39.6758 -110.3503 298° West 399 459 31,500 -1,119 Descending Denver Center
Tue 09:53:45 PM 39.7372 -110.5006 296° West 374 430 29,500 -1,522 Descending Salt Lake Center
Tue 09:54:47 PM 39.7761 -110.6044 296° West 344 396 28,100 -1,500 Descending Salt Lake Center
Tue 09:55:49 PM 39.8231 -110.7286 297° West 337 388 26,400 -1,548 Descending Salt Lake Center
Tue 09:56:51 PM 39.8631 -110.8331 297° West 336 387 24,900 -1,500 Descending Salt Lake Center
Tue 09:57:53 PM 39.9081 -110.9503 296° West 330 380 23,300 -1,440 Descending Salt Lake Center
Tue 09:58:56 PM 39.9453 -111.0483 296° West 320 368 21,900 -1,536 Descending Salt Lake Center
Tue 09:59:58 PM 39.9889 -111.1636 296° West 318 366 20,100 -1,548 Descending Salt Lake Center
Tue 10:01:00 PM 40.0247 -111.2589 295° West 313 360 18,700 -1,306 Descending Salt Lake Center
Tue 10:02:02 PM 40.0603 -111.3567 297° West 300 345 17,400 -1,210 Descending Salt Lake Center
Tue 10:03:04 PM 40.1050 -111.4728 296° West 302 348 16,200 -720 Descending Salt Lake Center
Tue 10:04:07 PM 40.1417 -111.5717 290° West 299 344 15,900 -109 Descending Salt Lake Center
Tue 10:04:54 PM 40.1650 -111.6564 310° West 296 341 16,000  Climbing Salt Lake Center
Tue 10:05:55 PM 40.2183 -111.7394 322° Northwest 303 349 15,900 -1,039 Descending Salt Lake Center
Tue 10:07:01 PM 40.2917 -111.8156 321° Northwest 308 354 13,800 -1,884 Descending Salt Lake Center
Tue 10:07:56 PM 40.3544 -111.8817 327° Northwest 308 354 12,100 -1,533 Descending Salt Lake Center
Tue 10:09:18 PM 40.4378 -111.9519 351° North 300 345 10,300 -1,164 Descending Salt Lake Center
Tue 10:10:10 PM 40.5158 -111.9678 353° North 277 319 9,500 -1,071 Descending Salt Lake Center
Tue 10:11:10 PM 40.5825 -111.9792 357° North 231 266 8,300 -1,289 Descending Salt Lake Center
Tue 10:12:11 PM 40.6392 -111.9825 355° North 204 235 6,900 -1,241 Descending Salt Lake Center
Tue 10:13:06 PM 40.6833 -111.9872 355° North 182 209 5,900 -931 Descending Salt Lake Center
Tue 10:14:07 PM 40.7272 -111.9922 357° North 151 174 5,100 -703 Descending Salt Lake Center
Tue 10:15:31 PM 40.7808 -111.9958 357° North 143 165 4,200 -643 Descending Salt Lake Center

Login

Don't have an account? Register now (free) for customized features, flight alerts, and more!